sensor_id;sensor_type;location;lat;lon;timestamp;pressure;altitude;pressure_sealevel;temperature;humidity
17311;BME280;8773;43.300;0.394;2024-03-02T00:01:39;98869.47;;;9.93;100.00
17311;BME280;8773;43.300;0.394;2024-03-02T00:04:07;98877.81;;;9.82;100.00
17311;BME280;8773;43.300;0.394;2024-03-02T00:06:36;98880.66;;;9.73;100.00
17311;BME280;8773;43.300;0.394;2024-03-02T00:09:04;98877.72;;;9.51;100.00
17311;BME280;8773;43.300;0.394;2024-03-02T00:11:34;98874.06;;;9.52;100.00
17311;BME280;8773;43.300;0.394;2024-03-02T00:14:02;98870.22;;;9.55;100.00
17311;BME280;8773;43.300;0.394;2024-03-02T00:16:30;98875.03;;;9.59;100.00
17311;BME280;8773;43.300;0.394;2024-03-02T00:19:01;98874.72;;;9.54;100.00
17311;BME280;8773;43.300;0.394;2024-03-02T00:21:29;98876.19;;;9.65;100.00
17311;BME280;8773;43.300;0.394;2024-03-02T00:23:59;98875.19;;;9.66;100.00
17311;BME280;8773;43.300;0.394;2024-03-02T00:26:27;98862.03;;;9.56;100.00
17311;BME280;8773;43.300;0.394;2024-03-02T00:28:55;98879.00;;;9.63;100.00
17311;BME280;8773;43.300;0.394;2024-03-02T00:31:23;98879.69;;;9.57;100.00
17311;BME280;8773;43.300;0.394;2024-03-02T00:33:50;98875.22;;;9.50;100.00
17311;BME280;8773;43.300;0.394;2024-03-02T00:36:22;98872.53;;;9.58;100.00
17311;BME280;8773;43.300;0.394;2024-03-02T00:38:52;98870.66;;;9.75;100.00
17311;BME280;8773;43.300;0.394;2024-03-02T00:41:23;98868.00;;;9.75;100.00
17311;BME280;8773;43.300;0.394;2024-03-02T00:43:58;98862.84;;;9.73;100.00
17311;BME280;8773;43.300;0.394;2024-03-02T00:46:27;98859.19;;;9.58;100.00
17311;BME280;8773;43.300;0.394;2024-03-02T00:48:57;98865.25;;;9.52;100.00
17311;BME280;8773;43.300;0.394;2024-03-02T00:51:26;98864.41;;;9.43;100.00
17311;BME280;8773;43.300;0.394;2024-03-02T00:53:55;98861.59;;;9.37;100.00
17311;BME280;8773;43.300;0.394;2024-03-02T00:56:25;98864.06;;;9.46;100.00
17311;BME280;8773;43.300;0.394;2024-03-02T00:58:53;98859.19;;;9.58;100.00
17311;BME280;8773;43.300;0.394;2024-03-02T01:01:20;98854.91;;;9.49;100.00
17311;BME280;8773;43.300;0.394;2024-03-02T01:03:48;98851.91;;;9.52;100.00
17311;BME280;8773;43.300;0.394;2024-03-02T01:06:16;98849.25;;;9.52;100.00
17311;BME280;8773;43.300;0.394;2024-03-02T01:08:43;98850.69;;;9.62;100.00
17311;BME280;8773;43.300;0.394;2024-03-02T01:11:11;98848.53;;;9.66;100.00
17311;BME280;8773;43.300;0.394;2024-03-02T01:13:40;98844.72;;;9.60;100.00
17311;BME280;8773;43.300;0.394;2024-03-02T01:16:07;98836.09;;;9.50;100.00
17311;BME280;8773;43.300;0.394;2024-03-02T01:18:34;98838.28;;;9.47;100.00
17311;BME280;8773;43.300;0.394;2024-03-02T01:21:02;98836.78;;;9.36;100.00
17311;BME280;8773;43.300;0.394;2024-03-02T01:23:30;98833.44;;;9.50;100.00
17311;BME280;8773;43.300;0.394;2024-03-02T01:25:57;98825.28;;;9.44;100.00
17311;BME280;8773;43.300;0.394;2024-03-02T01:28:24;98823.13;;;9.47;100.00
17311;BME280;8773;43.300;0.394;2024-03-02T01:30:53;98824.28;;;9.45;100.00
17311;BME280;8773;43.300;0.394;2024-03-02T01:33:21;98811.97;;;9.52;100.00
17311;BME280;8773;43.300;0.394;2024-03-02T01:35:48;98805.59;;;9.61;100.00
17311;BME280;8773;43.300;0.394;2024-03-02T01:38:16;98804.88;;;9.75;100.00
17311;BME280;8773;43.300;0.394;2024-03-02T01:40:43;98795.22;;;9.74;100.00
17311;BME280;8773;43.300;0.394;2024-03-02T01:43:10;98792.88;;;9.79;100.00
17311;BME280;8773;43.300;0.394;2024-03-02T01:45:38;98791.41;;;9.69;100.00
17311;BME280;8773;43.300;0.394;2024-03-02T01:48:07;98791.88;;;9.80;100.00
17311;BME280;8773;43.300;0.394;2024-03-02T01:50:35;98786.84;;;9.85;100.00
17311;BME280;8773;43.300;0.394;2024-03-02T01:53:03;98779.50;;;9.87;100.00
17311;BME280;8773;43.300;0.394;2024-03-02T01:55:30;98765.31;;;9.95;100.00
17311;BME280;8773;43.300;0.394;2024-03-02T01:57:58;98774.50;;;9.92;100.00
17311;BME280;8773;43.300;0.394;2024-03-02T02:00:26;98755.78;;;10.01;100.00
17311;BME280;8773;43.300;0.394;2024-03-02T02:02:54;98761.06;;;10.17;100.00
17311;BME280;8773;43.300;0.394;2024-03-02T02:05:23;98763.03;;;10.23;100.00
17311;BME280;8773;43.300;0.394;2024-03-02T02:07:51;98747.41;;;10.12;100.00
17311;BME280;8773;43.300;0.394;2024-03-02T02:10:18;98739.06;;;10.15;100.00
17311;BME280;8773;43.300;0.394;2024-03-02T02:12:45;98733.25;;;10.11;100.00
17311;BME280;8773;43.300;0.394;2024-03-02T02:15:26;98737.19;;;10.23;100.00
17311;BME280;8773;43.300;0.394;2024-03-02T02:17:54;98727.41;;;10.16;100.00
17311;BME280;8773;43.300;0.394;2024-03-02T02:20:21;98724.25;;;10.12;100.00
17311;BME280;8773;43.300;0.394;2024-03-02T02:23:00;98720.13;;;9.71;100.00
17311;BME280;8773;43.300;0.394;2024-03-02T02:25:29;98707.66;;;9.63;100.00
17311;BME280;8773;43.300;0.394;2024-03-02T02:27:57;98703.69;;;9.59;100.00
17311;BME280;8773;43.300;0.394;2024-03-02T02:30:27;98687.53;;;9.60;100.00
17311;BME280;8773;43.300;0.394;2024-03-02T02:32:55;98691.47;;;9.73;100.00
17311;BME280;8773;43.300;0.394;2024-03-02T02:35:24;98681.69;;;9.65;100.00
17311;BME280;8773;43.300;0.394;2024-03-02T02:37:52;98678.66;;;9.68;100.00
17311;BME280;8773;43.300;0.394;2024-03-02T02:40:22;98666.97;;;9.77;100.00
17311;BME280;8773;43.300;0.394;2024-03-02T02:42:50;98664.00;;;9.72;100.00
17311;BME280;8773;43.300;0.394;2024-03-02T02:45:18;98667.63;;;9.79;100.00
17311;BME280;8773;43.300;0.394;2024-03-02T02:47:45;98658.97;;;9.77;100.00
17311;BME280;8773;43.300;0.394;2024-03-02T02:50:13;98650.06;;;9.62;100.00
17311;BME280;8773;43.300;0.394;2024-03-02T02:52:41;98638.66;;;9.76;100.00
17311;BME280;8773;43.300;0.394;2024-03-02T02:55:09;98633.81;;;9.80;100.00
17311;BME280;8773;43.300;0.394;2024-03-02T02:57:40;98629.19;;;9.74;100.00
17311;BME280;8773;43.300;0.394;2024-03-02T03:00:08;98626.31;;;9.52;100.00
17311;BME280;8773;43.300;0.394;2024-03-02T03:02:37;98620.88;;;9.69;100.00
17311;BME280;8773;43.300;0.394;2024-03-02T03:05:05;98620.31;;;9.81;100.00
17311;BME280;8773;43.300;0.394;2024-03-02T03:07:33;98618.66;;;9.80;100.00
17311;BME280;8773;43.300;0.394;2024-03-02T03:10:00;98602.34;;;9.75;100.00
17311;BME280;8773;43.300;0.394;2024-03-02T03:12:28;98608.69;;;9.74;100.00
17311;BME280;8773;43.300;0.394;2024-03-02T03:14:57;98601.00;;;9.79;100.00
17311;BME280;8773;43.300;0.394;2024-03-02T03:17:24;98593.66;;;9.81;100.00
17311;BME280;8773;43.300;0.394;2024-03-02T03:19:51;98591.75;;;9.67;100.00
17311;BME280;8773;43.300;0.394;2024-03-02T03:22:19;98584.53;;;9.53;100.00
17311;BME280;8773;43.300;0.394;2024-03-02T03:24:46;98577.28;;;9.61;100.00
17311;BME280;8773;43.300;0.394;2024-03-02T03:27:14;98575.53;;;9.54;100.00
17311;BME280;8773;43.300;0.394;2024-03-02T03:29:41;98561.97;;;9.41;100.00
17311;BME280;8773;43.300;0.394;2024-03-02T03:32:10;98555.16;;;9.61;100.00
17311;BME280;8773;43.300;0.394;2024-03-02T03:34:37;98551.13;;;9.65;100.00
17311;BME280;8773;43.300;0.394;2024-03-02T03:37:04;98546.91;;;9.56;100.00
17311;BME280;8773;43.300;0.394;2024-03-02T03:39:33;98542.59;;;9.70;100.00
17311;BME280;8773;43.300;0.394;2024-03-02T03:42:01;98538.28;;;9.69;100.00
17311;BME280;8773;43.300;0.394;2024-03-02T03:44:28;98526.31;;;9.64;100.00
17311;BME280;8773;43.300;0.394;2024-03-02T03:46:55;98529.09;;;9.71;100.00
17311;BME280;8773;43.300;0.394;2024-03-02T03:49:24;98524.13;;;9.68;100.00
17311;BME280;8773;43.300;0.394;2024-03-02T03:51:51;98524.31;;;9.67;100.00
17311;BME280;8773;43.300;0.394;2024-03-02T03:54:19;98523.97;;;9.70;100.00
17311;BME280;8773;43.300;0.394;2024-03-02T03:56:46;98509.34;;;9.66;100.00
17311;BME280;8773;43.300;0.394;2024-03-02T03:59:14;98502.34;;;9.64;100.00
17311;BME280;8773;43.300;0.394;2024-03-02T04:01:41;98506.50;;;9.67;100.00
17311;BME280;8773;43.300;0.394;2024-03-02T04:04:08;98501.81;;;9.69;100.00
17311;BME280;8773;43.300;0.394;2024-03-02T04:06:37;98494.19;;;9.66;100.00
17311;BME280;8773;43.300;0.394;2024-03-02T04:09:04;98490.75;;;9.57;100.00
17311;BME280;8773;43.300;0.394;2024-03-02T04:11:32;98488.06;;;9.43;100.00
17311;BME280;8773;43.300;0.394;2024-03-02T04:13:59;98482.06;;;9.41;100.00
17311;BME280;8773;43.300;0.394;2024-03-02T04:16:26;98473.03;;;9.50;100.00
17311;BME280;8773;43.300;0.394;2024-03-02T04:18:54;98467.88;;;9.25;100.00
17311;BME280;8773;43.300;0.394;2024-03-02T04:21:21;98470.78;;;9.39;100.00
17311;BME280;8773;43.300;0.394;2024-03-02T04:23:50;98468.41;;;9.44;100.00
17311;BME280;8773;43.300;0.394;2024-03-02T04:26:17;98445.69;;;9.33;100.00
17311;BME280;8773;43.300;0.394;2024-03-02T04:28:45;98449.59;;;9.45;100.00
17311;BME280;8773;43.300;0.394;2024-03-02T04:31:12;98437.44;;;9.43;100.00
17311;BME280;8773;43.300;0.394;2024-03-02T04:33:39;98432.78;;;9.45;100.00
17311;BME280;8773;43.300;0.394;2024-03-02T04:36:07;98428.16;;;9.39;100.00
17311;BME280;8773;43.300;0.394;2024-03-02T04:38:34;98413.00;;;9.39;100.00
17311;BME280;8773;43.300;0.394;2024-03-02T04:41:04;98420.53;;;9.36;100.00
17311;BME280;8773;43.300;0.394;2024-03-02T04:43:32;98413.97;;;9.23;100.00
17311;BME280;8773;43.300;0.394;2024-03-02T04:45:59;98407.34;;;9.19;100.00
17311;BME280;8773;43.300;0.394;2024-03-02T04:48:27;98412.09;;;9.09;100.00
17311;BME280;8773;43.300;0.394;2024-03-02T04:50:54;98405.13;;;9.08;100.00
17311;BME280;8773;43.300;0.394;2024-03-02T04:53:21;98406.78;;;9.09;100.00
17311;BME280;8773;43.300;0.394;2024-03-02T04:55:49;98393.91;;;8.90;100.00
17311;BME280;8773;43.300;0.394;2024-03-02T04:58:18;98387.81;;;8.58;100.00
17311;BME280;8773;43.300;0.394;2024-03-02T05:00:45;98392.78;;;8.61;100.00
17311;BME280;8773;43.300;0.394;2024-03-02T05:03:12;98385.09;;;8.67;100.00
17311;BME280;8773;43.300;0.394;2024-03-02T05:05:40;98373.16;;;8.62;100.00
17311;BME280;8773;43.300;0.394;2024-03-02T05:08:07;98369.72;;;8.77;100.00
17311;BME280;8773;43.300;0.394;2024-03-02T05:10:34;98359.44;;;8.51;100.00
17311;BME280;8773;43.300;0.394;2024-03-02T05:13:02;98350.53;;;8.67;100.00
17311;BME280;8773;43.300;0.394;2024-03-02T05:15:31;98358.72;;;8.80;100.00
17311;BME280;8773;43.300;0.394;2024-03-02T05:17:58;98347.09;;;8.81;100.00
17311;BME280;8773;43.300;0.394;2024-03-02T05:20:25;98353.75;;;8.77;100.00
17311;BME280;8773;43.300;0.394;2024-03-02T05:22:53;98343.41;;;8.82;100.00
17311;BME280;8773;43.300;0.394;2024-03-02T05:25:20;98354.41;;;8.79;100.00
17311;BME280;8773;43.300;0.394;2024-03-02T05:27:47;98345.44;;;8.57;100.00
17311;BME280;8773;43.300;0.394;2024-03-02T05:30:15;98333.84;;;8.42;100.00
17311;BME280;8773;43.300;0.394;2024-03-02T05:32:44;98333.66;;;8.51;100.00
17311;BME280;8773;43.300;0.394;2024-03-02T05:35:11;98339.53;;;8.70;100.00
17311;BME280;8773;43.300;0.394;2024-03-02T05:37:38;98316.88;;;8.74;100.00
17311;BME280;8773;43.300;0.394;2024-03-02T05:40:07;98323.31;;;8.79;100.00
17311;BME280;8773;43.300;0.394;2024-03-02T05:42:35;98322.09;;;8.90;100.00
17311;BME280;8773;43.300;0.394;2024-03-02T05:45:02;98319.06;;;8.93;100.00
17311;BME280;8773;43.300;0.394;2024-03-02T05:47:30;98307.16;;;8.66;100.00
17311;BME280;8773;43.300;0.394;2024-03-02T05:49:58;98307.97;;;8.67;100.00
17311;BME280;8773;43.300;0.394;2024-03-02T05:52:26;98312.63;;;8.87;100.00
17311;BME280;8773;43.300;0.394;2024-03-02T05:54:53;98297.66;;;8.86;100.00
17311;BME280;8773;43.300;0.394;2024-03-02T05:57:21;98302.28;;;8.92;100.00
17311;BME280;8773;43.300;0.394;2024-03-02T05:59:48;98298.44;;;8.95;100.00
17311;BME280;8773;43.300;0.394;2024-03-02T06:02:15;98282.09;;;8.98;100.00
17311;BME280;8773;43.300;0.394;2024-03-02T06:04:43;98278.84;;;8.88;100.00
17311;BME280;8773;43.300;0.394;2024-03-02T06:07:11;98255.03;;;8.72;100.00
17311;BME280;8773;43.300;0.394;2024-03-02T06:09:39;98239.72;;;8.28;100.00
17311;BME280;8773;43.300;0.394;2024-03-02T06:12:08;98243.94;;;8.22;100.00
17311;BME280;8773;43.300;0.394;2024-03-02T06:14:35;98264.00;;;8.56;100.00
17311;BME280;8773;43.300;0.394;2024-03-02T06:17:02;98274.31;;;8.74;100.00
17311;BME280;8773;43.300;0.394;2024-03-02T06:19:30;98279.41;;;8.83;100.00
17311;BME280;8773;43.300;0.394;2024-03-02T06:21:57;98268.44;;;9.01;100.00
17311;BME280;8773;43.300;0.394;2024-03-02T06:24:26;98261.56;;;9.07;100.00
17311;BME280;8773;43.300;0.394;2024-03-02T06:26:53;98256.97;;;9.15;100.00
17311;BME280;8773;43.300;0.394;2024-03-02T06:29:21;98256.88;;;9.23;100.00
17311;BME280;8773;43.300;0.394;2024-03-02T06:31:48;98246.16;;;9.32;100.00
17311;BME280;8773;43.300;0.394;2024-03-02T06:34:20;98252.03;;;9.12;100.00
17311;BME280;8773;43.300;0.394;2024-03-02T06:36:47;98260.28;;;9.17;100.00
17311;BME280;8773;43.300;0.394;2024-03-02T06:39:14;98243.22;;;9.26;100.00
17311;BME280;8773;43.300;0.394;2024-03-02T06:41:43;98238.06;;;9.25;100.00
17311;BME280;8773;43.300;0.394;2024-03-02T06:44:10;98226.59;;;9.10;100.00
17311;BME280;8773;43.300;0.394;2024-03-02T06:46:38;98214.31;;;9.09;100.00
17311;BME280;8773;43.300;0.394;2024-03-02T06:49:05;98224.88;;;8.65;100.00
17311;BME280;8773;43.300;0.394;2024-03-02T06:51:34;98211.09;;;8.99;100.00
17311;BME280;8773;43.300;0.394;2024-03-02T06:54:01;98206.03;;;9.04;100.00
17311;BME280;8773;43.300;0.394;2024-03-02T06:56:28;98219.81;;;9.22;100.00
17311;BME280;8773;43.300;0.394;2024-03-02T06:58:57;98214.84;;;9.34;100.00
17311;BME280;8773;43.300;0.394;2024-03-02T07:01:24;98195.56;;;9.02;100.00
17311;BME280;8773;43.300;0.394;2024-03-02T07:03:52;98192.44;;;9.28;100.00
17311;BME280;8773;43.300;0.394;2024-03-02T07:06:19;98196.84;;;9.36;100.00
17311;BME280;8773;43.300;0.394;2024-03-02T07:08:47;98193.81;;;9.39;100.00
17311;BME280;8773;43.300;0.394;2024-03-02T07:11:14;98191.81;;;9.41;100.00
17311;BME280;8773;43.300;0.394;2024-03-02T07:13:41;98178.94;;;9.44;100.00
17311;BME280;8773;43.300;0.394;2024-03-02T07:16:10;98178.84;;;9.52;100.00
17311;BME280;8773;43.300;0.394;2024-03-02T07:18:38;98178.09;;;9.58;100.00
17311;BME280;8773;43.300;0.394;2024-03-02T07:21:05;98161.88;;;9.53;100.00
17311;BME280;8773;43.300;0.394;2024-03-02T07:23:32;98168.22;;;9.38;100.00
17311;BME280;8773;43.300;0.394;2024-03-02T07:26:00;98162.03;;;9.52;100.00
17311;BME280;8773;43.300;0.394;2024-03-02T07:28:31;98157.72;;;9.51;100.00
17311;BME280;8773;43.300;0.394;2024-03-02T07:30:58;98160.91;;;9.61;100.00
17311;BME280;8773;43.300;0.394;2024-03-02T07:33:27;98157.53;;;9.52;100.00
17311;BME280;8773;43.300;0.394;2024-03-02T07:35:54;98147.03;;;9.66;100.00
17311;BME280;8773;43.300;0.394;2024-03-02T07:38:22;98143.78;;;9.70;100.00
17311;BME280;8773;43.300;0.394;2024-03-02T07:40:50;98145.72;;;9.76;100.00
17311;BME280;8773;43.300;0.394;2024-03-02T07:43:17;98143.31;;;9.81;100.00
17311;BME280;8773;43.300;0.394;2024-03-02T07:45:45;98145.94;;;9.60;100.00
17311;BME280;8773;43.300;0.394;2024-03-02T07:48:13;98138.03;;;9.67;100.00
17311;BME280;8773;43.300;0.394;2024-03-02T07:50:42;98139.38;;;9.41;100.00
17311;BME280;8773;43.300;0.394;2024-03-02T07:53:09;98133.25;;;9.62;100.00
17311;BME280;8773;43.300;0.394;2024-03-02T07:55:37;98136.38;;;9.66;100.00
17311;BME280;8773;43.300;0.394;2024-03-02T07:58:04;98128.19;;;9.67;100.00
17311;BME280;8773;43.300;0.394;2024-03-02T08:00:31;98108.44;;;9.61;100.00
17311;BME280;8773;43.300;0.394;2024-03-02T08:02:59;98105.22;;;9.66;100.00
17311;BME280;8773;43.300;0.394;2024-03-02T08:05:27;98097.88;;;9.68;100.00
17311;BME280;8773;43.300;0.394;2024-03-02T08:07:56;98100.78;;;9.73;100.00
17311;BME280;8773;43.300;0.394;2024-03-02T08:10:24;98102.81;;;9.71;100.00
17311;BME280;8773;43.300;0.394;2024-03-02T08:12:51;98100.03;;;9.79;100.00
17311;BME280;8773;43.300;0.394;2024-03-02T08:15:18;98089.66;;;9.84;100.00
17311;BME280;8773;43.300;0.394;2024-03-02T08:17:46;98091.56;;;9.90;100.00
17311;BME280;8773;43.300;0.394;2024-03-02T08:20:13;98080.16;;;10.03;100.00
17311;BME280;8773;43.300;0.394;2024-03-02T08:22:41;98074.66;;;9.62;100.00
17311;BME280;8773;43.300;0.394;2024-03-02T08:25:10;98064.91;;;9.90;100.00
17311;BME280;8773;43.300;0.394;2024-03-02T08:27:38;98079.06;;;10.12;100.00
17311;BME280;8773;43.300;0.394;2024-03-02T08:30:06;98065.53;;;9.92;100.00
17311;BME280;8773;43.300;0.394;2024-03-02T08:32:34;98064.91;;;10.12;100.00
17311;BME280;8773;43.300;0.394;2024-03-02T08:35:02;98071.31;;;10.17;100.00
17311;BME280;8773;43.300;0.394;2024-03-02T08:37:30;98059.28;;;10.28;100.00
17311;BME280;8773;43.300;0.394;2024-03-02T08:39:57;98051.28;;;10.28;100.00
17311;BME280;8773;43.300;0.394;2024-03-02T08:42:26;98051.28;;;10.28;100.00
17311;BME280;8773;43.300;0.394;2024-03-02T08:44:54;98052.56;;;10.32;100.00
17311;BME280;8773;43.300;0.394;2024-03-02T08:47:21;98049.13;;;10.45;100.00
17311;BME280;8773;43.300;0.394;2024-03-02T08:49:48;98046.06;;;10.41;100.00
17311;BME280;8773;43.300;0.394;2024-03-02T08:52:16;98040.38;;;10.23;99.78
17311;BME280;8773;43.300;0.394;2024-03-02T08:54:43;98041.88;;;10.32;100.00
17311;BME280;8773;43.300;0.394;2024-03-02T08:57:10;98031.66;;;10.36;100.00
17311;BME280;8773;43.300;0.394;2024-03-02T08:59:40;98039.53;;;10.50;99.47
17311;BME280;8773;43.300;0.394;2024-03-02T09:02:07;98017.84;;;10.04;100.00
17311;BME280;8773;43.300;0.394;2024-03-02T09:04:34;98004.63;;;9.89;100.00
17311;BME280;8773;43.300;0.394;2024-03-02T09:07:02;97994.47;;;10.00;100.00
17311;BME280;8773;43.300;0.394;2024-03-02T09:09:29;98002.38;;;10.14;100.00
17311;BME280;8773;43.300;0.394;2024-03-02T09:11:57;97998.31;;;10.18;100.00
17311;BME280;8773;43.300;0.394;2024-03-02T09:14:24;97999.06;;;10.12;100.00
17311;BME280;8773;43.300;0.394;2024-03-02T09:16:53;97980.34;;;10.34;99.21
17311;BME280;8773;43.300;0.394;2024-03-02T09:19:20;97994.56;;;10.47;96.84
17311;BME280;8773;43.300;0.394;2024-03-02T09:21:48;97992.19;;;9.96;97.30
17311;BME280;8773;43.300;0.394;2024-03-02T09:24:15;97982.16;;;10.26;97.22
17311;BME280;8773;43.300;0.394;2024-03-02T09:26:45;97974.75;;;10.01;96.71
17311;BME280;8773;43.300;0.394;2024-03-02T09:29:12;97976.41;;;9.74;99.28
17311;BME280;8773;43.300;0.394;2024-03-02T09:31:40;97978.41;;;9.93;99.73
17311;BME280;8773;43.300;0.394;2024-03-02T09:34:08;97962.50;;;10.06;97.52
17311;BME280;8773;43.300;0.394;2024-03-02T09:36:36;97951.97;;;10.19;97.02
17311;BME280;8773;43.300;0.394;2024-03-02T09:39:03;97966.69;;;10.50;94.76
17311;BME280;8773;43.300;0.394;2024-03-02T09:41:33;97972.59;;;10.80;91.08
17311;BME280;8773;43.300;0.394;2024-03-02T09:44:00;97968.06;;;10.87;87.83
17311;BME280;8773;43.300;0.394;2024-03-02T09:46:28;97945.25;;;10.30;93.61
17311;BME280;8773;43.300;0.394;2024-03-02T09:48:56;97939.84;;;10.58;92.27
17311;BME280;8773;43.300;0.394;2024-03-02T09:51:25;97943.00;;;10.75;92.04
17311;BME280;8773;43.300;0.394;2024-03-02T09:53:54;97940.00;;;10.98;88.85
17311;BME280;8773;43.300;0.394;2024-03-02T09:56:29;97946.16;;;11.05;90.69
17311;BME280;8773;43.300;0.394;2024-03-02T09:58:56;97938.69;;;10.74;91.41
17311;BME280;8773;43.300;0.394;2024-03-02T10:01:24;97931.28;;;10.69;92.02
17311;BME280;8773;43.300;0.394;2024-03-02T10:03:51;97928.66;;;10.82;93.20
17311;BME280;8773;43.300;0.394;2024-03-02T10:06:22;97922.59;;;11.15;93.43
17311;BME280;8773;43.300;0.394;2024-03-02T10:08:51;97923.63;;;11.20;89.82
17311;BME280;8773;43.300;0.394;2024-03-02T10:11:28;97906.16;;;11.38;90.01
17311;BME280;8773;43.300;0.394;2024-03-02T10:14:06;97906.81;;;11.53;88.49
17311;BME280;8773;43.300;0.394;2024-03-02T10:16:33;97896.16;;;11.66;85.54
17311;BME280;8773;43.300;0.394;2024-03-02T10:19:15;97902.28;;;11.93;82.21
17311;BME280;8773;43.300;0.394;2024-03-02T10:21:42;97902.19;;;12.26;81.38
17311;BME280;8773;43.300;0.394;2024-03-02T10:24:11;97889.78;;;12.51;79.00
17311;BME280;8773;43.300;0.394;2024-03-02T10:26:39;97884.56;;;12.63;76.17
17311;BME280;8773;43.300;0.394;2024-03-02T10:29:07;97904.88;;;12.84;74.19
17311;BME280;8773;43.300;0.394;2024-03-02T10:31:35;97898.56;;;13.03;74.02
17311;BME280;8773;43.300;0.394;2024-03-02T10:34:03;97915.09;;;13.00;73.62
17311;BME280;8773;43.300;0.394;2024-03-02T10:36:31;97914.19;;;12.75;77.89
17311;BME280;8773;43.300;0.394;2024-03-02T10:38:59;97899.72;;;12.24;79.64
17311;BME280;8773;43.300;0.394;2024-03-02T10:41:32;97905.84;;;12.45;76.68
17311;BME280;8773;43.300;0.394;2024-03-02T10:44:01;97910.75;;;12.54;74.53
17311;BME280;8773;43.300;0.394;2024-03-02T10:46:30;97905.09;;;12.18;77.61
17311;BME280;8773;43.300;0.394;2024-03-02T10:48:58;97884.19;;;11.29;81.64
17311;BME280;8773;43.300;0.394;2024-03-02T10:51:30;97875.13;;;11.37;84.24
17311;BME280;8773;43.300;0.394;2024-03-02T10:53:58;97876.56;;;11.99;81.15
17311;BME280;8773;43.300;0.394;2024-03-02T10:56:28;97875.00;;;12.36;76.27
17311;BME280;8773;43.300;0.394;2024-03-02T10:59:02;97876.72;;;12.75;75.00
17311;BME280;8773;43.300;0.394;2024-03-02T11:01:31;97858.91;;;12.93;73.92
17311;BME280;8773;43.300;0.394;2024-03-02T11:04:00;97871.38;;;13.06;73.86
17311;BME280;8773;43.300;0.394;2024-03-02T11:06:29;97867.56;;;13.20;73.38
17311;BME280;8773;43.300;0.394;2024-03-02T11:08:58;97859.38;;;13.40;73.56
17311;BME280;8773;43.300;0.394;2024-03-02T11:11:30;97841.22;;;12.86;71.93
17311;BME280;8773;43.300;0.394;2024-03-02T11:14:01;97836.13;;;12.78;73.68
17311;BME280;8773;43.300;0.394;2024-03-02T11:16:33;97839.41;;;13.11;73.10
17311;BME280;8773;43.300;0.394;2024-03-02T11:19:03;97844.28;;;13.46;71.82
17311;BME280;8773;43.300;0.394;2024-03-02T11:21:32;97842.09;;;13.61;69.89
17311;BME280;8773;43.300;0.394;2024-03-02T11:23:59;97838.59;;;13.36;66.50
17311;BME280;8773;43.300;0.394;2024-03-02T11:26:27;97818.81;;;13.55;67.81
17311;BME280;8773;43.300;0.394;2024-03-02T11:28:54;97821.72;;;13.78;68.34
17311;BME280;8773;43.300;0.394;2024-03-02T11:34:34;97811.47;;;14.12;66.83
17311;BME280;8773;43.300;0.394;2024-03-02T11:37:03;97817.06;;;14.29;65.19
17311;BME280;8773;43.300;0.394;2024-03-02T11:39:31;97804.50;;;14.41;64.05
17311;BME280;8773;43.300;0.394;2024-03-02T11:41:59;97804.69;;;14.57;63.22
17311;BME280;8773;43.300;0.394;2024-03-02T11:44:27;97794.56;;;14.41;60.00
17311;BME280;8773;43.300;0.394;2024-03-02T11:46:59;97792.78;;;14.35;58.96
17311;BME280;8773;43.300;0.394;2024-03-02T11:49:37;97780.94;;;14.43;58.82
17311;BME280;8773;43.300;0.394;2024-03-02T11:52:05;97774.50;;;14.44;62.06
17311;BME280;8773;43.300;0.394;2024-03-02T11:54:33;97770.25;;;14.54;61.84
17311;BME280;8773;43.300;0.394;2024-03-02T11:57:02;97776.03;;;14.70;57.05
17311;BME280;8773;43.300;0.394;2024-03-02T11:59:29;97759.56;;;14.78;57.53
17311;BME280;8773;43.300;0.394;2024-03-02T12:01:59;97731.88;;;14.66;58.75
17311;BME280;8773;43.300;0.394;2024-03-02T12:04:26;97737.25;;;14.66;59.27
17311;BME280;8773;43.300;0.394;2024-03-02T12:06:55;97740.56;;;14.49;59.42
17311;BME280;8773;43.300;0.394;2024-03-02T12:09:22;97740.44;;;14.44;60.91
17311;BME280;8773;43.300;0.394;2024-03-02T12:12:01;97716.25;;;14.33;60.45
17311;BME280;8773;43.300;0.394;2024-03-02T12:14:29;97724.06;;;14.34;61.47
17311;BME280;8773;43.300;0.394;2024-03-02T12:16:56;97726.06;;;14.39;60.79
17311;BME280;8773;43.300;0.394;2024-03-02T12:19:25;97706.44;;;14.38;61.67
17311;BME280;8773;43.300;0.394;2024-03-02T12:21:53;97709.53;;;14.53;59.70
17311;BME280;8773;43.300;0.394;2024-03-02T12:24:21;97711.91;;;14.62;60.63
17311;BME280;8773;43.300;0.394;2024-03-02T12:26:49;97710.41;;;14.66;60.93
17311;BME280;8773;43.300;0.394;2024-03-02T12:29:18;97714.00;;;14.59;61.52
17311;BME280;8773;43.300;0.394;2024-03-02T12:31:47;97705.13;;;14.59;62.91
17311;BME280;8773;43.300;0.394;2024-03-02T12:34:15;97710.59;;;14.52;63.05
17311;BME280;8773;43.300;0.394;2024-03-02T12:36:46;97709.78;;;14.52;63.40
17311;BME280;8773;43.300;0.394;2024-03-02T12:39:13;97718.75;;;14.16;62.07
17311;BME280;8773;43.300;0.394;2024-03-02T12:41:41;97704.63;;;13.54;53.13
17311;BME280;8773;43.300;0.394;2024-03-02T12:44:08;97702.69;;;13.43;59.15
17311;BME280;8773;43.300;0.394;2024-03-02T12:46:36;97699.41;;;13.59;58.13
17311;BME280;8773;43.300;0.394;2024-03-02T12:49:08;97672.81;;;13.76;51.74
17311;BME280;8773;43.300;0.394;2024-03-02T12:51:37;97654.00;;;13.64;47.65
17311;BME280;8773;43.300;0.394;2024-03-02T12:54:06;97645.41;;;13.74;47.21
17311;BME280;8773;43.300;0.394;2024-03-02T12:56:33;97643.75;;;13.91;46.71
17311;BME280;8773;43.300;0.394;2024-03-02T12:59:02;97643.31;;;13.94;47.32
17311;BME280;8773;43.300;0.394;2024-03-02T13:01:29;97638.81;;;14.06;45.51
17311;BME280;8773;43.300;0.394;2024-03-02T13:03:58;97629.50;;;14.09;44.47
17311;BME280;8773;43.300;0.394;2024-03-02T13:06:26;97619.16;;;14.24;44.78
17311;BME280;8773;43.300;0.394;2024-03-02T13:08:54;97612.88;;;14.42;44.19
17311;BME280;8773;43.300;0.394;2024-03-02T13:11:23;97608.81;;;14.51;44.34
17311;BME280;8773;43.300;0.394;2024-03-02T13:13:50;97616.50;;;14.47;44.33
17311;BME280;8773;43.300;0.394;2024-03-02T13:16:18;97609.97;;;14.43;45.23
17311;BME280;8773;43.300;0.394;2024-03-02T13:18:49;97599.94;;;14.50;44.83